White Hills, Arizona
Current Conditions -  °F | °C
As of 7:15 PM on Thursday 20 Nov 2014 (Local Time) from KBVU Reporting Station
Clear Clear  
Wind Chill: 59°   Ceiling: Unl
Heat Index: 59°   Visibility: 10mi
Dew Point: 21°   Wind: 7mph
Humidity: 23%   Direction: 60°ENE
Pressure: 29.97"   Gusts: NA
Location:  35.8707°N, 114.659°W
Report Text: KBVU 210215Z AUTO 06006KT 10SM CLR 15/M06 A2997 RMK AO2
Loading
Personal Weather Stations






























Interactive Weather Map New forecast layout! Learn more

10-Day Weather Forecast

Advertisements
Track Severe Weather on mobile